createdAt,value
2022-10-28T00:01:19.345Z,83.63
2022-10-28T00:03:48.576Z,83.75
2022-10-28T00:06:21.329Z,83.69
2022-10-28T00:08:48.506Z,83.72
2022-10-28T00:11:20.487Z,82.71
2022-10-28T00:13:47.306Z,82.99
2022-10-28T00:16:17.246Z,82.10
2022-10-28T00:18:44.264Z,82.53
2022-10-28T00:21:16.010Z,82.75
2022-10-28T00:23:42.479Z,82.89
2022-10-28T00:26:10.554Z,83.29
2022-10-28T00:28:40.841Z,83.84
2022-10-28T00:31:08.745Z,84.00
2022-10-28T00:33:35.492Z,83.82
2022-10-28T00:36:13.740Z,85.39
2022-10-28T00:38:41.643Z,85.41
2022-10-28T00:41:09.634Z,85.76
2022-10-28T00:43:46.194Z,86.13
2022-10-28T00:46:39.424Z,86.35
2022-10-28T00:49:27.851Z,86.30
2022-10-28T00:52:02.287Z,86.85
2022-10-28T00:54:30.707Z,86.86
2022-10-28T00:57:01.053Z,86.95
2022-10-28T00:59:37.590Z,86.94
2022-10-28T01:02:05.342Z,87.23
2022-10-28T01:04:32.362Z,88.00
2022-10-28T01:07:01.229Z,87.67
2022-10-28T01:09:27.998Z,87.37
2022-10-28T01:12:00.528Z,87.92
2022-10-28T01:14:58.384Z,86.11
2022-10-28T01:17:35.812Z,85.69
2022-10-28T01:20:52.587Z,84.50
2022-10-28T01:23:46.131Z,83.10
2022-10-28T01:26:21.677Z,82.98
2022-10-28T01:29:21.969Z,83.51
2022-10-28T01:31:59.081Z,82.96
2022-10-28T01:34:31.607Z,82.58
2022-10-28T01:37:08.559Z,82.90
2022-10-28T01:39:49.690Z,82.56
2022-10-28T01:42:54.401Z,82.21
2022-10-28T01:45:30.570Z,81.93
2022-10-28T01:48:01.712Z,81.27
2022-10-28T01:50:55.471Z,81.45
2022-10-28T01:53:27.412Z,81.11
2022-10-28T01:55:58.071Z,82.08
2022-10-28T01:58:30.931Z,83.24
2022-10-28T02:01:00.351Z,83.42
2022-10-28T02:03:28.271Z,83.98
2022-10-28T02:06:00.074Z,83.89
2022-10-28T02:08:26.319Z,83.67
2022-10-28T02:11:03.934Z,83.99
2022-10-28T02:13:54.175Z,83.90
2022-10-28T02:16:33.452Z,84.28
2022-10-28T02:19:36.639Z,84.28
2022-10-28T02:22:18.369Z,83.74
2022-10-28T02:24:50.586Z,83.13
2022-10-28T02:27:28.897Z,83.00
2022-10-28T02:30:12.831Z,83.13
2022-10-28T02:32:44.441Z,83.16
2022-10-28T02:35:18.963Z,83.40
2022-10-28T02:37:49.036Z,83.28
2022-10-28T02:40:21.252Z,83.14
2022-10-28T02:42:52.634Z,82.82
2022-10-28T02:45:22.741Z,83.16
2022-10-28T02:47:57.570Z,82.89
2022-10-28T02:50:30.183Z,83.13
2022-10-28T02:52:59.548Z,82.18
2022-10-28T02:55:34.456Z,82.20
2022-10-28T02:58:00.973Z,82.14
2022-10-28T03:00:27.358Z,82.17
2022-10-28T03:02:53.818Z,82.14
2022-10-28T03:05:20.743Z,82.05
2022-10-28T03:07:47.059Z,81.88
2022-10-28T03:10:13.430Z,81.39
2022-10-28T03:12:39.770Z,81.81
2022-10-28T03:15:06.605Z,81.02
2022-10-28T03:17:32.931Z,80.83
2022-10-28T03:19:59.319Z,80.23
2022-10-28T03:22:25.697Z,80.59
2022-10-28T03:24:52.222Z,81.15
2022-10-28T03:27:18.631Z,81.56
2022-10-28T03:29:46.095Z,81.10
2022-10-28T03:32:12.717Z,80.63
2022-10-28T03:34:39.193Z,80.62
2022-10-28T03:37:05.558Z,80.30
2022-10-28T03:39:31.864Z,80.18
2022-10-28T03:41:58.237Z,80.49
2022-10-28T03:44:24.668Z,79.68
2022-10-28T03:46:50.967Z,79.60
2022-10-28T03:49:17.311Z,79.43
2022-10-28T03:51:43.637Z,79.04
2022-10-28T03:54:09.978Z,79.14
2022-10-28T03:56:36.376Z,78.90
2022-10-28T03:59:02.689Z,78.86
2022-10-28T04:01:29.084Z,78.94
2022-10-28T04:03:55.500Z,78.63
2022-10-28T04:06:21.911Z,78.95
2022-10-28T04:08:48.269Z,78.56
2022-10-28T04:11:14.617Z,78.61
2022-10-28T04:13:40.918Z,78.71
2022-10-28T04:16:07.316Z,78.41
2022-10-28T04:18:35.345Z,78.87
2022-10-28T04:21:02.664Z,78.49
2022-10-28T04:23:29.234Z,79.10
2022-10-28T04:25:55.671Z,78.19
2022-10-28T04:28:24.312Z,79.07
2022-10-28T04:30:50.619Z,78.90
2022-10-28T04:33:17.041Z,79.16
2022-10-28T04:35:43.376Z,79.77
2022-10-28T04:38:14.134Z,80.53
2022-10-28T04:40:40.907Z,81.91
2022-10-28T04:43:09.711Z,82.64
2022-10-28T04:45:36.670Z,84.63
2022-10-28T04:48:03.138Z,83.46
2022-10-28T04:50:29.469Z,84.75
2022-10-28T04:52:56.216Z,84.77
2022-10-28T04:55:23.021Z,84.98
2022-10-28T04:57:57.736Z,85.45
2022-10-28T05:00:26.493Z,85.63
2022-10-28T05:02:53.462Z,85.63
2022-10-28T05:05:20.197Z,86.49
2022-10-28T05:07:46.592Z,87.30
2022-10-28T05:10:15.570Z,86.92
2022-10-28T05:12:42.905Z,86.27
2022-10-28T05:15:10.020Z,86.40
2022-10-28T05:17:38.802Z,86.88
2022-10-28T05:20:06.467Z,87.33
2022-10-28T05:22:32.817Z,86.72
2022-10-28T05:24:59.172Z,87.21
2022-10-28T05:27:25.638Z,88.22
2022-10-28T05:29:51.976Z,89.03
2022-10-28T05:32:18.323Z,89.02
2022-10-28T05:34:44.635Z,90.70
2022-10-28T05:37:11.321Z,90.55
2022-10-28T05:39:37.845Z,90.48
2022-10-28T05:42:04.391Z,91.21
2022-10-28T05:44:30.744Z,91.50
2022-10-28T05:46:57.095Z,92.13
2022-10-28T05:49:23.538Z,91.51
2022-10-28T05:51:49.866Z,91.94
2022-10-28T05:54:16.159Z,91.90
2022-10-28T05:56:42.444Z,91.87
2022-10-28T05:59:08.798Z,91.57
2022-10-28T06:01:35.157Z,91.64
2022-10-28T06:04:01.564Z,91.96
2022-10-28T06:06:28.821Z,91.84
2022-10-28T06:08:55.164Z,90.88
2022-10-28T06:11:20.069Z,90.42
2022-10-28T06:13:46.554Z,89.71
2022-10-28T06:16:13.098Z,89.10
2022-10-28T06:18:39.553Z,88.63
2022-10-28T06:21:05.910Z,87.95
2022-10-28T06:23:32.241Z,87.97
2022-10-28T06:26:00.468Z,87.30
2022-10-28T06:28:27.030Z,86.66
2022-10-28T06:30:53.433Z,87.39
2022-10-28T06:33:19.748Z,87.81
2022-10-28T06:35:46.078Z,88.02
2022-10-28T06:38:12.399Z,86.59
2022-10-28T06:40:38.759Z,88.00
2022-10-28T06:43:11.913Z,87.14
2022-10-28T06:45:38.374Z,88.57
2022-10-28T06:48:06.403Z,89.51
2022-10-28T06:50:34.378Z,89.50
2022-10-28T06:53:01.033Z,89.97
2022-10-28T06:55:28.578Z,90.21
2022-10-28T06:57:59.643Z,91.05
2022-10-28T07:00:26.787Z,90.60
2022-10-28T07:02:54.068Z,90.72
2022-10-28T07:05:21.988Z,91.82
2022-10-28T07:07:48.316Z,91.92
2022-10-28T07:10:14.768Z,92.22
2022-10-28T07:12:41.199Z,92.32
2022-10-28T07:15:08.161Z,92.17
2022-10-28T07:17:34.525Z,91.78
2022-10-28T07:20:00.909Z,91.56
2022-10-28T07:22:27.247Z,92.94
2022-10-28T07:24:53.571Z,93.43
2022-10-28T07:27:19.966Z,93.61
2022-10-28T07:29:46.303Z,93.16
2022-10-28T07:32:12.668Z,93.47
2022-10-28T07:34:39.029Z,94.23
2022-10-28T07:37:06.084Z,93.86
2022-10-28T07:39:32.709Z,93.55
2022-10-28T07:42:01.110Z,93.81
2022-10-28T07:44:27.480Z,93.27
2022-10-28T07:46:57.174Z,92.70
2022-10-28T07:49:24.702Z,92.13
2022-10-28T07:51:51.461Z,92.27
2022-10-28T07:54:17.833Z,93.39
2022-10-28T07:56:44.215Z,93.81
2022-10-28T07:59:10.550Z,93.71
2022-10-28T08:01:37.117Z,93.93
2022-10-28T08:04:03.585Z,93.82
2022-10-28T08:06:30.023Z,93.88
2022-10-28T08:08:57.460Z,93.29
2022-10-28T08:11:24.331Z,93.13
2022-10-28T08:13:52.412Z,93.11
2022-10-28T08:16:19.365Z,93.98
2022-10-28T08:18:46.112Z,93.77
2022-10-28T08:21:14.109Z,92.86
2022-10-28T08:23:41.632Z,93.50
2022-10-28T08:26:08.260Z,93.55
2022-10-28T08:28:34.608Z,93.24
2022-10-28T08:31:10.435Z,92.21
2022-10-28T08:33:38.952Z,91.71
2022-10-28T08:36:06.648Z,93.33
2022-10-28T08:38:33.077Z,92.70
2022-10-28T08:41:21.724Z,91.72
2022-10-28T08:44:06.745Z,93.43
2022-10-28T08:46:57.666Z,92.69
2022-10-28T08:49:24.682Z,92.03
2022-10-28T08:52:00.848Z,93.04
2022-10-28T08:54:47.130Z,92.54
2022-10-28T08:57:20.546Z,91.35
2022-10-28T08:59:52.003Z,92.39
2022-10-28T09:02:24.474Z,91.70
2022-10-28T09:05:21.245Z,90.58
2022-10-28T09:07:47.960Z,91.68
2022-10-28T09:10:16.367Z,92.33
2022-10-28T09:13:06.727Z,90.43
2022-10-28T09:18:31.051Z,91.86
2022-10-28T09:21:02.766Z,91.46
2022-10-28T09:23:44.169Z,90.92
2022-10-28T09:26:36.626Z,91.33
2022-10-28T09:29:30.270Z,91.47
2022-10-28T09:32:33.072Z,90.20
2022-10-28T09:35:34.774Z,91.02
2022-10-28T09:38:28.546Z,90.49
2022-10-28T09:41:08.088Z,90.86
2022-10-28T09:43:38.541Z,90.55
2022-10-28T09:46:12.638Z,90.42
2022-10-28T09:48:48.206Z,91.00
2022-10-28T09:52:08.518Z,91.52
2022-10-28T09:54:37.665Z,90.86
2022-10-28T09:57:04.713Z,90.64
2022-10-28T09:59:31.048Z,92.48
2022-10-28T10:01:57.867Z,91.96
2022-10-28T10:04:27.173Z,91.68
2022-10-28T10:07:02.907Z,92.39
2022-10-28T10:09:32.054Z,93.05
2022-10-28T10:12:16.984Z,92.82
2022-10-28T10:14:52.726Z,91.10
2022-10-28T10:17:22.575Z,91.51
2022-10-28T10:20:09.900Z,91.04
2022-10-28T10:22:41.850Z,91.65
2022-10-28T10:25:20.281Z,91.66
2022-10-28T10:27:55.871Z,91.24
2022-10-28T10:30:26.335Z,91.48
2022-10-28T10:32:53.119Z,91.37
2022-10-28T10:35:25.127Z,89.86
2022-10-28T10:37:53.655Z,91.31
2022-10-28T10:40:27.584Z,91.83
2022-10-28T10:43:12.951Z,91.30
2022-10-28T10:45:40.144Z,91.76
2022-10-28T10:48:14.828Z,90.43
2022-10-28T10:50:46.844Z,91.51
2022-10-28T10:53:23.164Z,90.81
2022-10-28T10:56:01.223Z,91.04
2022-10-28T10:58:34.154Z,90.58
2022-10-28T11:01:04.902Z,90.14
2022-10-28T11:06:40.637Z,90.31
2022-10-28T11:09:18.030Z,90.72
2022-10-28T11:11:44.760Z,90.66
2022-10-28T11:14:12.327Z,90.86
2022-10-28T11:16:50.008Z,90.66
2022-10-28T11:19:23.315Z,90.67
2022-10-28T11:22:27.132Z,91.22
2022-10-28T11:25:21.695Z,91.10
2022-10-28T11:28:00.035Z,91.57
2022-10-28T11:30:48.812Z,91.01
2022-10-28T11:33:35.035Z,90.79
2022-10-28T11:36:07.697Z,91.30
2022-10-28T11:38:36.970Z,90.79
2022-10-28T11:41:26.625Z,90.50
2022-10-28T11:44:04.759Z,91.06
2022-10-28T11:47:04.193Z,92.14
2022-10-28T11:50:13.307Z,92.14
2022-10-28T11:52:45.353Z,91.45
2022-10-28T11:55:30.853Z,91.48
2022-10-28T11:58:19.069Z,91.95
2022-10-28T12:00:50.064Z,91.09
2022-10-28T12:03:41.233Z,91.54
2022-10-28T12:06:12.065Z,91.45
2022-10-28T12:08:38.343Z,91.15
2022-10-28T12:11:29.838Z,91.49
2022-10-28T12:14:22.118Z,91.53
2022-10-28T12:17:04.421Z,91.91
2022-10-28T12:19:38.639Z,91.38
2022-10-28T12:22:13.076Z,91.38
2022-10-28T12:24:43.080Z,91.43
2022-10-28T12:27:21.988Z,91.10
2022-10-28T12:29:54.374Z,91.39
2022-10-28T12:32:27.172Z,90.67
2022-10-28T12:35:02.016Z,90.64
2022-10-28T12:37:41.070Z,90.57
2022-10-28T12:40:24.465Z,90.70
2022-10-28T12:43:03.169Z,89.70
2022-10-28T12:45:32.034Z,89.44
2022-10-28T12:48:14.603Z,89.87
2022-10-28T12:50:53.101Z,89.69
2022-10-28T12:53:56.622Z,89.11
2022-10-28T12:56:30.214Z,89.10
2022-10-28T12:59:05.755Z,89.38
2022-10-28T13:01:35.020Z,88.61
2022-10-28T13:04:01.816Z,89.38
2022-10-28T13:06:57.829Z,88.46
2022-10-28T13:10:01.293Z,89.33
2022-10-28T13:13:00.505Z,88.31
2022-10-28T13:15:32.673Z,88.97
2022-10-28T13:18:04.985Z,88.86
2022-10-28T13:20:48.086Z,88.20
2022-10-28T13:23:31.095Z,88.82
2022-10-28T13:26:06.078Z,88.73
2022-10-28T13:28:43.807Z,89.17
2022-10-28T13:31:10.926Z,89.24
2022-10-28T13:33:38.836Z,88.69
2022-10-28T13:36:11.268Z,89.25
2022-10-28T13:38:38.513Z,89.78
2022-10-28T13:41:04.847Z,89.36
2022-10-28T13:43:49.440Z,89.63
2022-10-28T13:46:53.497Z,90.45
2022-10-28T13:49:22.785Z,89.90
2022-10-28T13:51:51.339Z,89.99
2022-10-28T13:54:25.491Z,90.11
2022-10-28T13:56:52.317Z,90.63
2022-10-28T13:59:29.274Z,90.17
2022-10-28T14:02:34.677Z,90.11
2022-10-28T14:05:06.532Z,89.47
2022-10-28T14:07:36.287Z,90.07
2022-10-28T14:10:22.410Z,89.48
2022-10-28T14:13:05.882Z,89.55
2022-10-28T14:15:35.480Z,89.01
2022-10-28T14:18:42.324Z,89.31
2022-10-28T14:21:06.613Z,89.14
2022-10-28T14:23:32.891Z,88.61
2022-10-28T14:26:05.322Z,89.26
2022-10-28T14:28:31.839Z,89.08
2022-10-28T14:31:11.297Z,88.90
2022-10-28T14:33:46.481Z,89.73
2022-10-28T14:36:19.169Z,89.39
2022-10-28T14:38:59.823Z,90.17
2022-10-28T14:41:29.117Z,89.45
2022-10-28T14:44:09.973Z,89.80
2022-10-28T14:47:02.705Z,89.69
2022-10-28T14:49:31.744Z,71.24
2022-10-28T14:52:15.446Z,84.87
2022-10-28T14:54:49.636Z,90.10
2022-10-28T14:57:22.069Z,91.63
2022-10-28T14:59:50.830Z,92.23
2022-10-28T15:02:19.955Z,93.13
2022-10-28T15:04:48.562Z,92.39
2022-10-28T15:07:17.609Z,92.30
2022-10-28T15:09:46.108Z,92.04
2022-10-28T15:12:16.705Z,92.31
2022-10-28T15:14:52.138Z,93.01
2022-10-28T15:17:20.003Z,92.37
2022-10-28T15:19:51.957Z,91.00
2022-10-28T15:22:21.360Z,89.77
2022-10-28T15:24:53.781Z,89.38
2022-10-28T15:27:21.561Z,88.67
2022-10-28T15:29:49.361Z,88.97
2022-10-28T15:32:21.859Z,88.77
2022-10-28T15:34:48.999Z,88.10
2022-10-28T15:37:21.377Z,88.04
2022-10-28T15:39:50.865Z,88.20
2022-10-28T15:42:30.942Z,87.82
2022-10-28T15:44:58.162Z,88.24
2022-10-28T15:47:34.615Z,88.04
2022-10-28T15:50:14.852Z,88.39
2022-10-28T15:52:50.163Z,87.47
2022-10-28T15:55:19.312Z,87.42
2022-10-28T15:57:54.726Z,87.33
2022-10-28T16:00:30.772Z,87.40
2022-10-28T16:03:00.926Z,88.06
2022-10-28T16:05:43.005Z,88.72
2022-10-28T16:08:37.296Z,87.05
2022-10-28T16:11:13.138Z,88.15
2022-10-28T16:13:47.066Z,88.30
2022-10-28T16:16:22.381Z,88.56
2022-10-28T16:18:54.176Z,88.42
2022-10-28T16:21:25.375Z,89.05
2022-10-28T16:23:58.724Z,89.13
2022-10-28T16:26:28.895Z,89.15
2022-10-28T16:28:56.180Z,88.89
2022-10-28T16:31:27.881Z,89.82
2022-10-28T16:33:54.321Z,89.79
2022-10-28T16:36:20.688Z,89.68
2022-10-28T16:38:47.234Z,90.71
2022-10-28T16:41:17.486Z,90.06
2022-10-28T16:43:44.084Z,91.62
2022-10-28T16:46:14.636Z,90.55
2022-10-28T16:48:41.268Z,91.15
2022-10-28T16:51:14.953Z,90.57
2022-10-28T16:53:46.829Z,91.27
2022-10-28T16:56:15.290Z,91.64
2022-10-28T16:58:42.656Z,90.52
2022-10-28T17:01:10.989Z,90.50
2022-10-28T17:03:37.659Z,91.70
2022-10-28T17:06:04.177Z,91.84
2022-10-28T17:08:49.398Z,92.33
2022-10-28T17:11:17.129Z,91.09
2022-10-28T17:13:43.526Z,90.86
2022-10-28T17:16:09.888Z,90.70
2022-10-28T17:18:36.233Z,91.81
2022-10-28T17:21:03.562Z,91.50
2022-10-28T17:23:29.972Z,89.86
2022-10-28T17:26:00.982Z,90.46
2022-10-28T17:28:27.903Z,89.75
2022-10-28T17:31:01.105Z,87.87
2022-10-28T17:33:27.595Z,87.25
2022-10-28T17:35:54.083Z,87.68
2022-10-28T17:38:20.418Z,87.31
2022-10-28T17:40:57.321Z,88.15
2022-10-28T17:43:24.310Z,87.95
2022-10-28T17:45:50.931Z,88.35
2022-10-28T17:48:17.865Z,88.08
2022-10-28T17:50:45.112Z,87.41
2022-10-28T17:53:11.653Z,87.48
2022-10-28T17:55:38.295Z,88.00
2022-10-28T17:58:04.671Z,87.80
2022-10-28T18:00:31.004Z,88.07
2022-10-28T18:02:57.370Z,86.68
2022-10-28T18:05:23.792Z,86.40
2022-10-28T18:07:54.387Z,86.71
2022-10-28T18:10:21.064Z,86.88
2022-10-28T18:12:50.483Z,87.70
2022-10-28T18:15:16.800Z,86.43
2022-10-28T18:17:43.137Z,86.99
2022-10-28T18:20:09.747Z,87.88
2022-10-28T18:22:36.050Z,89.11
2022-10-28T18:25:02.412Z,89.48
2022-10-28T18:27:29.101Z,89.40
2022-10-28T18:29:55.403Z,90.18
2022-10-28T18:32:21.743Z,90.84
2022-10-28T18:34:48.101Z,89.59
2022-10-28T18:37:14.608Z,90.50
2022-10-28T18:39:41.070Z,90.75
2022-10-28T18:42:08.742Z,90.38
2022-10-28T18:44:36.650Z,91.89
2022-10-28T18:47:03.143Z,91.57
2022-10-28T18:49:29.675Z,91.45
2022-10-28T18:51:56.040Z,91.32
2022-10-28T18:54:22.410Z,90.92
2022-10-28T18:56:50.552Z,90.58
2022-10-28T18:59:18.844Z,90.83
2022-10-28T19:01:46.921Z,90.77
2022-10-28T19:04:14.417Z,90.98
2022-10-28T19:06:41.148Z,91.92
2022-10-28T19:09:07.776Z,91.46
2022-10-28T19:11:34.549Z,90.85
2022-10-28T19:14:03.579Z,90.95
2022-10-28T19:16:33.130Z,91.83
2022-10-28T19:19:00.989Z,91.70
2022-10-28T19:21:28.095Z,90.77
2022-10-28T19:23:54.746Z,89.63
2022-10-28T19:26:22.893Z,90.89
2022-10-28T19:28:50.688Z,89.53
2022-10-28T19:31:19.758Z,89.28
2022-10-28T19:33:46.255Z,87.93
2022-10-28T19:36:18.439Z,88.29
2022-10-28T19:38:45.971Z,87.35
2022-10-28T19:41:17.961Z,86.53
2022-10-28T19:43:45.544Z,87.23
2022-10-28T19:46:14.807Z,87.74
2022-10-28T19:48:43.284Z,87.13
2022-10-28T19:51:13.708Z,85.88
2022-10-28T19:53:40.061Z,86.71
2022-10-28T19:56:06.785Z,85.60
2022-10-28T19:58:33.458Z,86.27
2022-10-28T20:01:08.992Z,86.21
2022-10-28T20:03:36.905Z,86.47
2022-10-28T20:06:06.710Z,84.92
2022-10-28T20:08:35.260Z,86.27
2022-10-28T20:11:04.164Z,86.33
2022-10-28T20:13:30.983Z,85.29
2022-10-28T20:16:02.043Z,85.38
2022-10-28T20:18:32.682Z,87.29
2022-10-28T20:21:06.697Z,88.05
2022-10-28T20:23:35.635Z,86.86
2022-10-28T20:26:04.000Z,87.37
2022-10-28T20:28:30.735Z,87.77
2022-10-28T20:31:01.256Z,88.63
2022-10-28T20:33:28.523Z,88.21
2022-10-28T20:35:55.865Z,88.55
2022-10-28T20:38:23.291Z,88.95
2022-10-28T20:40:52.150Z,89.24
2022-10-28T20:43:22.097Z,89.36
2022-10-28T20:45:59.390Z,90.92
2022-10-28T20:48:30.671Z,89.71
2022-10-28T20:51:02.037Z,90.42
2022-10-28T20:53:32.842Z,90.55
2022-10-28T20:55:59.542Z,89.54
2022-10-28T20:58:29.052Z,90.85
2022-10-28T21:01:02.739Z,90.20
2022-10-28T21:03:29.282Z,90.51
2022-10-28T21:05:55.814Z,89.92
2022-10-28T21:08:22.295Z,91.15
2022-10-28T21:10:48.948Z,90.90
2022-10-28T21:13:15.295Z,90.66
2022-10-28T21:15:45.553Z,90.45
2022-10-28T21:18:12.440Z,90.15
2022-10-28T21:20:39.492Z,91.21
2022-10-28T21:23:07.428Z,91.84
2022-10-28T21:25:33.900Z,90.97
2022-10-28T21:28:00.894Z,91.59
2022-10-28T21:30:28.071Z,91.79
2022-10-28T21:32:54.933Z,90.92
2022-10-28T21:35:22.002Z,91.40
2022-10-28T21:37:48.368Z,91.36
2022-10-28T21:40:14.928Z,90.13
2022-10-28T21:42:41.399Z,90.25
2022-10-28T21:45:08.412Z,89.99
2022-10-28T21:47:34.916Z,89.69
2022-10-28T21:50:01.272Z,89.38
2022-10-28T21:52:27.639Z,88.54
2022-10-28T21:54:54.000Z,87.99
2022-10-28T21:57:20.349Z,87.74
2022-10-28T21:59:49.436Z,88.74
2022-10-28T22:02:15.944Z,87.66
2022-10-28T22:04:42.498Z,88.37
2022-10-28T22:07:08.903Z,87.26
2022-10-28T22:09:37.455Z,89.00
2022-10-28T22:12:04.730Z,87.17
2022-10-28T22:14:32.002Z,88.36
2022-10-28T22:16:58.418Z,88.28
2022-10-28T22:19:24.721Z,89.46
2022-10-28T22:21:51.114Z,88.68
2022-10-28T22:24:17.460Z,88.95
2022-10-28T22:26:43.823Z,89.09
2022-10-28T22:29:10.304Z,89.30
2022-10-28T22:31:36.676Z,90.52
2022-10-28T22:34:05.242Z,90.11
2022-10-28T22:36:31.672Z,90.87
2022-10-28T22:38:58.221Z,90.68
2022-10-28T22:41:27.328Z,90.13
2022-10-28T22:43:56.548Z,89.63
2022-10-28T22:46:26.087Z,90.02
2022-10-28T22:48:53.357Z,90.50
2022-10-28T22:51:20.214Z,90.71
2022-10-28T22:53:46.665Z,91.40
2022-10-28T22:56:20.198Z,91.21
2022-10-28T22:58:47.645Z,91.04
2022-10-28T23:01:16.914Z,92.24
2022-10-28T23:03:45.923Z,92.41
2022-10-28T23:06:13.874Z,92.16
2022-10-28T23:08:41.680Z,91.40
2022-10-28T23:11:09.074Z,90.56
2022-10-28T23:18:55.469Z,90.69
2022-10-28T23:21:25.952Z,90.04
2022-10-28T23:23:57.081Z,91.16
2022-10-28T23:26:24.477Z,91.70
2022-10-28T23:28:52.915Z,90.96
2022-10-28T23:31:20.064Z,90.84
2022-10-28T23:33:46.718Z,90.59
2022-10-28T23:36:14.799Z,90.10
2022-10-28T23:38:41.964Z,90.60
2022-10-28T23:41:16.249Z,89.98
2022-10-28T23:43:42.885Z,89.58
2022-10-28T23:46:09.688Z,88.62
2022-10-28T23:48:36.006Z,89.19
2022-10-28T23:51:02.594Z,88.86
2022-10-28T23:53:30.486Z,87.58
2022-10-28T23:55:57.603Z,87.87
2022-10-28T23:58:24.013Z,89.05
